createdAt,value
2017-04-04T00:00:00.167Z,975.44
2017-04-04T00:01:08.938Z,975.42
2017-04-04T00:02:17.701Z,975.42
2017-04-04T00:03:26.451Z,975.4
2017-04-04T00:04:35.164Z,975.41
2017-04-04T00:05:44.239Z,975.39
2017-04-04T00:06:53.008Z,975.38
2017-04-04T00:08:01.760Z,975.35
2017-04-04T00:09:11.328Z,975.34
2017-04-04T00:10:20.052Z,975.35
2017-04-04T00:11:28.825Z,975.36
2017-04-04T00:12:37.606Z,975.34
2017-04-04T00:13:46.386Z,975.34
2017-04-04T00:14:55.160Z,975.33
2017-04-04T00:16:03.935Z,975.31
2017-04-04T00:17:13.015Z,975.3
2017-04-04T00:18:22.400Z,975.29
2017-04-04T00:19:31.154Z,975.31
2017-04-04T00:20:40.177Z,975.31
2017-04-04T00:21:48.947Z,975.31
2017-04-04T00:22:57.717Z,975.27
2017-04-04T00:24:06.798Z,975.27
2017-04-04T00:25:15.565Z,975.26
2017-04-04T00:26:24.336Z,975.25
2017-04-04T00:27:33.121Z,975.22
2017-04-04T00:28:42.201Z,975.27
2017-04-04T00:29:51.279Z,975.23
2017-04-04T00:31:00.046Z,975.24
2017-04-04T00:32:09.120Z,975.26
2017-04-04T00:33:17.892Z,975.27
2017-04-04T00:34:26.658Z,975.27
2017-04-04T00:35:35.730Z,975.25
2017-04-04T00:36:44.682Z,975.24
2017-04-04T00:37:53.465Z,975.28
2017-04-04T00:39:02.540Z,975.27
2017-04-04T00:40:11.619Z,975.22
2017-04-04T00:41:20.691Z,975.26
2017-04-04T00:42:29.451Z,975.24
2017-04-04T00:43:38.150Z,975.27
2017-04-04T00:44:46.875Z,975.3
2017-04-04T00:45:55.939Z,975.29
2017-04-04T00:47:05.031Z,975.23
2017-04-04T00:48:13.803Z,975.22
2017-04-04T00:49:22.539Z,975.28
2017-04-04T00:50:31.303Z,975.25
2017-04-04T00:51:40.070Z,975.25
2017-04-04T00:52:48.845Z,975.2
2017-04-04T00:53:57.916Z,975.19
2017-04-04T00:55:06.976Z,975.18
2017-04-04T00:56:15.695Z,975.18
2017-04-04T00:57:24.455Z,975.15
2017-04-04T00:58:33.223Z,975.13
2017-04-04T00:59:41.984Z,975.09
2017-04-04T01:00:51.000Z,975.1
2017-04-04T01:02:00.259Z,975.07
2017-04-04T01:03:08.969Z,975.07
2017-04-04T01:04:17.918Z,975.07
2017-04-04T01:05:26.622Z,975.04
2017-04-04T01:06:35.684Z,975.04
2017-04-04T01:07:44.711Z,975.02
2017-04-04T01:08:53.489Z,975
2017-04-04T01:10:02.561Z,975
2017-04-04T01:11:11.325Z,974.99
2017-04-04T01:12:20.038Z,974.94
2017-04-04T01:13:28.791Z,974.99
2017-04-04T01:14:37.487Z,975
2017-04-04T01:15:46.203Z,974.96
2017-04-04T01:16:55.264Z,974.97
2017-04-04T01:18:03.988Z,974.99
2017-04-04T01:19:12.770Z,974.99
2017-04-04T01:20:21.504Z,974.95
2017-04-04T01:21:30.571Z,974.98
2017-04-04T01:22:39.642Z,975.01
2017-04-04T01:23:48.411Z,974.93
2017-04-04T01:24:57.168Z,974.96
2017-04-04T01:26:06.479Z,974.96
2017-04-04T01:27:15.500Z,974.91
2017-04-04T01:28:24.255Z,974.93
2017-04-04T01:29:32.968Z,974.91
2017-04-04T01:30:41.737Z,974.91
2017-04-04T01:31:50.702Z,974.86
2017-04-04T01:32:59.468Z,974.91
2017-04-04T01:34:08.543Z,974.93
2017-04-04T01:35:17.612Z,974.94
2017-04-04T01:36:26.377Z,974.95
2017-04-04T01:37:35.145Z,974.94
2017-04-04T01:38:43.910Z,974.92
2017-04-04T01:39:52.985Z,974.93
2017-04-04T01:41:01.736Z,974.91
2017-04-04T01:42:10.448Z,974.92
2017-04-04T01:43:20.125Z,974.92
2017-04-04T01:44:28.895Z,974.91
2017-04-04T01:45:37.661Z,974.91
2017-04-04T01:46:47.047Z,974.9
2017-04-04T01:47:55.811Z,974.87
2017-04-04T01:49:04.580Z,974.87
2017-04-04T01:50:13.339Z,974.86
2017-04-04T01:51:22.715Z,974.89
2017-04-04T01:52:31.479Z,974.87
2017-04-04T01:53:40.243Z,974.82
2017-04-04T01:54:48.957Z,974.86
2017-04-04T01:55:57.720Z,974.79
2017-04-04T01:57:06.441Z,974.81
2017-04-04T01:58:15.500Z,974.85
2017-04-04T01:59:24.297Z,974.86
2017-04-04T02:00:33.060Z,974.8
2017-04-04T02:01:42.125Z,974.78
2017-04-04T02:02:51.127Z,974.79
2017-04-04T02:04:00.157Z,974.73
2017-04-04T02:05:09.242Z,974.75
2017-04-04T02:06:18.041Z,974.73
2017-04-04T02:07:26.754Z,974.75
2017-04-04T02:08:35.825Z,974.76
2017-04-04T02:09:44.773Z,974.7
2017-04-04T02:10:53.684Z,974.73
2017-04-04T02:12:02.735Z,974.74
2017-04-04T02:13:11.732Z,974.72
2017-04-04T02:14:20.425Z,974.71
2017-04-04T02:15:29.135Z,974.74
2017-04-04T02:16:37.905Z,974.77
2017-04-04T02:17:46.669Z,974.77
2017-04-04T02:18:55.437Z,974.79
2017-04-04T02:20:04.332Z,974.8
2017-04-04T02:21:13.042Z,974.83
2017-04-04T02:22:21.807Z,974.81
2017-04-04T02:23:30.616Z,974.82
2017-04-04T02:24:39.384Z,974.78
2017-04-04T02:25:48.747Z,974.75
2017-04-04T02:26:57.510Z,974.77
2017-04-04T02:28:06.926Z,974.76
2017-04-04T02:29:15.681Z,974.72
2017-04-04T02:30:24.441Z,974.72
2017-04-04T02:31:33.516Z,974.74
2017-04-04T02:32:42.885Z,974.71
2017-04-04T02:33:51.651Z,974.74
2017-04-04T02:35:00.405Z,974.7
2017-04-04T02:36:09.162Z,974.69
2017-04-04T02:37:18.226Z,974.67
2017-04-04T02:38:27.291Z,974.73
2017-04-04T02:39:36.063Z,974.73
2017-04-04T02:40:45.131Z,974.71
2017-04-04T02:41:53.891Z,974.71
2017-04-04T02:43:02.651Z,974.67
2017-04-04T02:44:11.729Z,974.68
2017-04-04T02:45:20.805Z,974.65
2017-04-04T02:46:29.867Z,974.67
2017-04-04T02:47:39.116Z,974.65
2017-04-04T02:48:48.119Z,974.63
2017-04-04T02:49:56.880Z,974.65
2017-04-04T02:51:05.943Z,974.61
2017-04-04T02:52:14.712Z,974.63
2017-04-04T02:53:24.056Z,974.6
2017-04-04T02:54:33.116Z,974.61
2017-04-04T02:55:41.874Z,974.57
2017-04-04T02:56:51.228Z,974.56
2017-04-04T02:57:59.937Z,974.56
2017-04-04T02:59:08.698Z,974.55
2017-04-04T03:00:17.456Z,974.53
2017-04-04T03:01:26.203Z,974.54
2017-04-04T03:02:34.916Z,974.5
2017-04-04T03:03:43.679Z,974.53
2017-04-04T03:04:52.441Z,974.51
2017-04-04T03:06:01.189Z,974.49
2017-04-04T03:07:10.200Z,974.5
2017-04-04T03:08:18.963Z,974.51
2017-04-04T03:09:27.715Z,974.49
2017-04-04T03:10:36.478Z,974.5
2017-04-04T03:11:45.236Z,974.49
2017-04-04T03:12:54.289Z,974.49
2017-04-04T03:14:03.599Z,974.48
2017-04-04T03:15:12.348Z,974.48
2017-04-04T03:16:21.051Z,974.43
2017-04-04T03:17:29.801Z,974.41
2017-04-04T03:18:38.861Z,974.43
2017-04-04T03:19:47.620Z,974.36
2017-04-04T03:20:56.386Z,974.37
2017-04-04T03:22:05.447Z,974.36
2017-04-04T03:23:14.510Z,974.35
2017-04-04T03:24:23.272Z,974.32
2017-04-04T03:25:32.041Z,974.31
2017-04-04T03:26:40.795Z,974.3
2017-04-04T03:27:49.556Z,974.28
2017-04-04T03:28:58.313Z,974.3
2017-04-04T03:30:07.064Z,974.3
2017-04-04T03:31:16.073Z,974.31
2017-04-04T03:32:25.144Z,974.28
2017-04-04T03:33:33.900Z,974.29
2017-04-04T03:34:43.279Z,974.31
2017-04-04T03:35:52.049Z,974.27
2017-04-04T03:37:01.268Z,974.25
2017-04-04T03:38:10.017Z,974.23
2017-04-04T03:39:18.724Z,974.26
2017-04-04T03:40:27.783Z,974.28
2017-04-04T03:41:36.513Z,974.28
2017-04-04T03:42:45.272Z,974.3
2017-04-04T03:43:54.027Z,974.3
2017-04-04T03:45:03.090Z,974.3
2017-04-04T03:46:11.843Z,974.29
2017-04-04T03:47:20.901Z,974.28
2017-04-04T03:48:29.965Z,974.26
2017-04-04T03:49:38.769Z,974.28
2017-04-04T03:50:47.504Z,974.26
2017-04-04T03:51:56.879Z,974.27
2017-04-04T03:53:05.751Z,974.25
2017-04-04T03:54:14.498Z,974.23
2017-04-04T03:55:23.202Z,974.27
2017-04-04T03:56:32.274Z,974.24
2017-04-04T03:57:41.031Z,974.27
2017-04-04T03:58:50.096Z,974.3
2017-04-04T03:59:58.870Z,974.27
2017-04-04T04:01:07.665Z,974.28
2017-04-04T04:02:16.429Z,974.27
2017-04-04T04:03:25.195Z,974.27
2017-04-04T04:04:33.949Z,974.25
2017-04-04T04:05:42.997Z,974.23
2017-04-04T04:06:52.026Z,974.24
2017-04-04T04:08:01.500Z,974.24
2017-04-04T04:09:10.238Z,974.26
2017-04-04T04:10:19.007Z,974.25
2017-04-04T04:11:27.773Z,974.27
2017-04-04T04:12:36.536Z,974.27
2017-04-04T04:13:45.500Z,974.24
2017-04-04T04:14:54.565Z,974.25
2017-04-04T04:16:03.329Z,974.25
2017-04-04T04:17:12.123Z,974.25
2017-04-04T04:18:20.833Z,974.23
2017-04-04T04:19:29.903Z,974.26
2017-04-04T04:20:38.976Z,974.24
2017-04-04T04:21:47.746Z,974.25
2017-04-04T04:22:56.807Z,974.26
2017-04-04T04:24:05.556Z,974.29
2017-04-04T04:25:14.256Z,974.29
2017-04-04T04:26:22.969Z,974.31
2017-04-04T04:27:31.738Z,974.31
2017-04-04T04:28:40.804Z,974.33
2017-04-04T04:29:49.882Z,974.36
2017-04-04T04:30:58.838Z,974.33
2017-04-04T04:32:07.543Z,974.31
2017-04-04T04:33:16.614Z,974.32
2017-04-04T04:34:25.369Z,974.38
2017-04-04T04:35:34.076Z,974.36
2017-04-04T04:36:42.848Z,974.36
2017-04-04T04:37:51.905Z,974.35
2017-04-04T04:39:00.604Z,974.38
2017-04-04T04:40:09.366Z,974.41
2017-04-04T04:41:18.118Z,974.4
2017-04-04T04:42:27.438Z,974.41
2017-04-04T04:43:36.198Z,974.4
2017-04-04T04:44:44.946Z,974.43
2017-04-04T04:45:53.714Z,974.39
2017-04-04T04:47:02.778Z,974.44
2017-04-04T04:48:11.524Z,974.46
2017-04-04T04:49:20.233Z,974.52
2017-04-04T04:50:29.288Z,974.45
2017-04-04T04:51:38.056Z,974.47
2017-04-04T04:52:46.827Z,974.45
2017-04-04T04:53:55.586Z,974.43
2017-04-04T04:55:05.265Z,974.44
2017-04-04T04:56:14.019Z,974.44
2017-04-04T04:57:22.782Z,974.43
2017-04-04T04:58:31.539Z,974.41
2017-04-04T04:59:40.605Z,974.44
2017-04-04T05:00:49.375Z,974.4
2017-04-04T05:01:58.437Z,974.39
2017-04-04T05:03:07.200Z,974.37
2017-04-04T05:04:16.272Z,974.37
2017-04-04T05:05:25.022Z,974.37
2017-04-04T05:06:34.041Z,974.38
2017-04-04T05:07:42.796Z,974.36
2017-04-04T05:08:51.808Z,974.37
2017-04-04T05:10:01.177Z,974.4
2017-04-04T05:11:10.189Z,974.41
2017-04-04T05:12:18.947Z,974.4
2017-04-04T05:13:27.909Z,974.43
2017-04-04T05:14:36.976Z,974.41
2017-04-04T05:15:45.741Z,974.41
2017-04-04T05:16:54.796Z,974.42
2017-04-04T05:18:03.812Z,974.43
2017-04-04T05:19:12.881Z,974.43
2017-04-04T05:20:21.642Z,974.44
2017-04-04T05:21:30.398Z,974.44
2017-04-04T05:22:39.398Z,974.41
2017-04-04T05:23:48.449Z,974.45
2017-04-04T05:24:57.464Z,974.42
2017-04-04T05:26:06.237Z,974.39
2017-04-04T05:27:15.003Z,974.36
2017-04-04T05:28:23.749Z,974.42
2017-04-04T05:29:32.456Z,974.42
2017-04-04T05:30:41.527Z,974.46
2017-04-04T05:31:50.289Z,974.45
2017-04-04T05:32:59.043Z,974.45
2017-04-04T05:34:08.409Z,974.45
2017-04-04T05:35:17.473Z,974.46
2017-04-04T05:36:26.523Z,974.47
2017-04-04T05:37:35.230Z,974.46
2017-04-04T05:38:43.992Z,974.49
2017-04-04T05:39:53.059Z,974.5
2017-04-04T05:41:01.818Z,974.51
2017-04-04T05:42:10.624Z,974.5
2017-04-04T05:43:19.846Z,974.49
2017-04-04T05:44:28.599Z,974.58
2017-04-04T05:45:37.618Z,974.55
2017-04-04T05:46:46.384Z,974.58
2017-04-04T05:47:55.135Z,974.58
2017-04-04T05:49:03.847Z,974.59
2017-04-04T05:50:12.614Z,974.63
2017-04-04T05:51:21.380Z,974.61
2017-04-04T05:52:30.449Z,974.58
2017-04-04T05:53:39.208Z,974.59
2017-04-04T05:54:47.959Z,974.62
2017-04-04T05:55:56.868Z,974.62
2017-04-04T05:57:05.943Z,974.62
2017-04-04T05:58:14.709Z,974.62
2017-04-04T05:59:23.471Z,974.62
2017-04-04T06:00:32.236Z,974.59
2017-04-04T06:01:41.303Z,974.63
2017-04-04T06:02:50.068Z,974.57
2017-04-04T06:03:58.827Z,974.58
2017-04-04T06:05:08.197Z,974.6
2017-04-04T06:06:17.873Z,974.62
2017-04-04T06:07:26.947Z,974.61
2017-04-04T06:08:36.303Z,974.66
2017-04-04T06:09:45.312Z,974.63
2017-04-04T06:10:54.076Z,974.63
2017-04-04T06:12:03.760Z,974.65
2017-04-04T06:13:13.438Z,974.65
2017-04-04T06:14:22.499Z,974.65
2017-04-04T06:15:31.496Z,974.7
2017-04-04T06:16:40.808Z,974.7
2017-04-04T06:17:50.170Z,974.7
2017-04-04T06:18:58.866Z,974.73
2017-04-04T06:20:07.577Z,974.72
2017-04-04T06:21:16.646Z,974.72
2017-04-04T06:22:25.715Z,974.75
2017-04-04T06:23:34.458Z,974.74
2017-04-04T06:24:43.152Z,974.74
2017-04-04T06:25:52.161Z,974.76
2017-04-04T06:27:00.921Z,974.78
2017-04-04T06:28:09.680Z,974.76
2017-04-04T06:29:19.059Z,974.75
2017-04-04T06:30:27.826Z,974.76
2017-04-04T06:31:36.580Z,974.79
2017-04-04T06:32:45.275Z,974.73
2017-04-04T06:33:54.170Z,974.76
2017-04-04T06:35:02.877Z,974.78
2017-04-04T06:36:11.623Z,974.8
2017-04-04T06:37:20.562Z,974.79
2017-04-04T06:38:29.323Z,974.79
2017-04-04T06:39:38.380Z,974.74
2017-04-04T06:40:47.430Z,974.78
2017-04-04T06:41:56.149Z,974.76
2017-04-04T06:43:05.168Z,974.75
2017-04-04T06:44:14.543Z,974.75
2017-04-04T06:45:23.307Z,974.74
2017-04-04T06:46:32.065Z,974.75
2017-04-04T06:47:40.832Z,974.76
2017-04-04T06:48:49.599Z,974.75
2017-04-04T06:49:58.668Z,974.73
2017-04-04T06:51:07.427Z,974.75
2017-04-04T06:52:16.193Z,974.77
2017-04-04T06:53:25.257Z,974.76
2017-04-04T06:54:34.522Z,974.79
2017-04-04T06:55:43.312Z,974.78
2017-04-04T06:56:52.366Z,974.77
2017-04-04T06:58:01.073Z,974.81
2017-04-04T06:59:09.837Z,974.74
2017-04-04T07:00:18.911Z,974.73
2017-04-04T07:01:27.984Z,974.77
2017-04-04T07:02:36.744Z,974.76
2017-04-04T07:03:45.815Z,974.8
2017-04-04T07:04:54.886Z,974.78
2017-04-04T07:06:03.844Z,974.79
2017-04-04T07:07:12.603Z,974.76
2017-04-04T07:08:21.676Z,974.78
2017-04-04T07:09:30.434Z,974.78
2017-04-04T07:10:39.789Z,974.73
2017-04-04T07:11:48.542Z,974.79
2017-04-04T07:12:57.301Z,974.77
2017-04-04T07:14:06.050Z,974.71
2017-04-04T07:15:14.762Z,974.71
2017-04-04T07:16:23.809Z,974.73
2017-04-04T07:17:32.520Z,974.69
2017-04-04T07:18:42.243Z,974.73
2017-04-04T07:19:51.009Z,974.71
2017-04-04T07:21:00.568Z,974.74
2017-04-04T07:22:09.267Z,974.78
2017-04-04T07:23:18.278Z,974.77
2017-04-04T07:24:27.043Z,974.8
2017-04-04T07:25:35.806Z,974.84
2017-04-04T07:26:44.873Z,974.84
2017-04-04T07:27:53.947Z,974.86
2017-04-04T07:29:02.716Z,974.85
2017-04-04T07:30:11.480Z,974.82
2017-04-04T07:31:20.755Z,974.89
2017-04-04T07:32:29.531Z,974.88
2017-04-04T07:33:38.585Z,974.85
2017-04-04T07:34:47.598Z,974.88
2017-04-04T07:35:56.356Z,974.89
2017-04-04T07:37:05.423Z,974.93
2017-04-04T07:38:14.188Z,974.97
2017-04-04T07:39:22.957Z,975
2017-04-04T07:40:32.019Z,975
2017-04-04T07:41:41.087Z,974.99
2017-04-04T07:42:50.051Z,974.99
2017-04-04T07:43:58.817Z,974.97
2017-04-04T07:45:08.238Z,974.96
2017-04-04T07:46:17.304Z,974.98
2017-04-04T07:47:26.573Z,974.98
2017-04-04T07:48:35.632Z,974.93
2017-04-04T07:49:44.348Z,974.99
2017-04-04T07:50:53.417Z,975
2017-04-04T07:52:02.186Z,974.94
2017-04-04T07:53:10.950Z,974.98
2017-04-04T07:54:19.709Z,974.95
2017-04-04T07:55:28.473Z,974.98
2017-04-04T07:56:37.541Z,975.01
2017-04-04T07:57:46.908Z,975.01
2017-04-04T07:58:55.630Z,974.97
2017-04-04T08:00:05.003Z,974.94
2017-04-04T08:01:13.776Z,974.94
2017-04-04T08:02:22.544Z,974.97
2017-04-04T08:03:31.312Z,974.99
2017-04-04T08:04:40.083Z,974.98
2017-04-04T08:05:48.848Z,974.95
2017-04-04T08:06:57.609Z,975.01
2017-04-04T08:08:06.479Z,975.01
2017-04-04T08:09:15.253Z,975.01
2017-04-04T08:10:24.004Z,975
2017-04-04T08:11:32.713Z,975.03
2017-04-04T08:12:41.781Z,975.04
2017-04-04T08:13:50.973Z,974.99
2017-04-04T08:14:59.743Z,975.01
2017-04-04T08:16:09.315Z,975.02
2017-04-04T08:17:18.379Z,974.99
2017-04-04T08:18:27.129Z,974.98
2017-04-04T08:19:35.834Z,975.02
2017-04-04T08:20:44.900Z,975.02
2017-04-04T08:21:53.972Z,974.99
2017-04-04T08:23:03.038Z,975.01
2017-04-04T08:24:12.407Z,975.05
2017-04-04T08:25:21.368Z,975.02
2017-04-04T08:26:30.129Z,975.07
2017-04-04T08:27:38.884Z,975.05
2017-04-04T08:28:47.595Z,975.02
2017-04-04T08:29:56.666Z,975.04
2017-04-04T08:31:05.423Z,975.05
2017-04-04T08:32:14.186Z,975.06
2017-04-04T08:33:22.941Z,975.09
2017-04-04T08:34:31.691Z,975.09
2017-04-04T08:35:40.770Z,975.08
2017-04-04T08:36:49.513Z,975.1
2017-04-04T08:37:58.276Z,975.09
2017-04-04T08:39:08.252Z,975.1
2017-04-04T08:40:18.238Z,975.12
2017-04-04T08:41:26.996Z,975.11
2017-04-04T08:42:36.069Z,975.12
2017-04-04T08:43:44.824Z,975.16
2017-04-04T08:44:53.568Z,975.18
2017-04-04T08:46:02.590Z,975.16
2017-04-04T08:47:11.660Z,975.16
2017-04-04T08:48:20.425Z,975.1
2017-04-04T08:49:30.103Z,975.16
2017-04-04T08:50:39.461Z,975.16
2017-04-04T08:51:48.461Z,975.23
2017-04-04T08:52:57.479Z,975.26
2017-04-04T08:54:07.198Z,975.28
2017-04-04T08:55:16.576Z,975.27
2017-04-04T08:56:25.342Z,975.29
2017-04-04T08:57:34.114Z,975.24
2017-04-04T08:58:43.187Z,975.23
2017-04-04T08:59:51.947Z,975.23
2017-04-04T09:01:01.610Z,975.23
2017-04-04T09:02:11.586Z,975.23
2017-04-04T09:03:21.569Z,975.26
2017-04-04T09:04:30.335Z,975.26
2017-04-04T09:05:39.099Z,975.27
2017-04-04T09:06:48.172Z,975.3
2017-04-04T09:07:56.946Z,975.21
2017-04-04T09:09:06.515Z,975.26
2017-04-04T09:10:15.889Z,975.26
2017-04-04T09:11:25.006Z,975.25
2017-04-04T09:12:33.721Z,975.27
2017-04-04T09:13:42.488Z,975.28
2017-04-04T09:14:51.241Z,975.23
2017-04-04T09:16:00.917Z,975.2
2017-04-04T09:17:09.685Z,975.2
2017-04-04T09:18:18.457Z,975.26
2017-04-04T09:19:27.224Z,975.25
2017-04-04T09:20:35.994Z,975.25
2017-04-04T09:21:44.755Z,975.23
2017-04-04T09:22:53.530Z,975.3
2017-04-04T09:24:02.297Z,975.22
2017-04-04T09:25:11.351Z,975.25
2017-04-04T09:26:20.060Z,975.25
2017-04-04T09:27:28.827Z,975.24
2017-04-04T09:28:37.585Z,975.27
2017-04-04T09:29:46.839Z,975.29
2017-04-04T09:30:55.538Z,975.29
2017-04-04T09:32:04.556Z,975.31
2017-04-04T09:33:13.317Z,975.33
2017-04-04T09:34:22.076Z,975.34
2017-04-04T09:35:30.774Z,975.36
2017-04-04T09:36:39.482Z,975.42
2017-04-04T09:37:48.242Z,975.37
2017-04-04T09:38:57.008Z,975.35
2017-04-04T09:40:05.776Z,975.35
2017-04-04T09:41:14.547Z,975.33
2017-04-04T09:42:23.616Z,975.33
2017-04-04T09:43:32.698Z,975.33
2017-04-04T09:44:41.789Z,975.33
2017-04-04T09:45:50.553Z,975.34
2017-04-04T09:46:59.622Z,975.33
2017-04-04T09:48:08.700Z,975.38
2017-04-04T09:49:17.472Z,975.35
2017-04-04T09:50:26.231Z,975.38
2017-04-04T09:51:35.231Z,975.34
2017-04-04T09:52:43.928Z,975.38
2017-04-04T09:53:52.928Z,975.35
2017-04-04T09:55:01.932Z,975.39
2017-04-04T09:56:10.960Z,975.37
2017-04-04T09:57:20.338Z,975.39
2017-04-04T09:58:29.410Z,975.42
2017-04-04T09:59:38.190Z,975.4
2017-04-04T10:00:46.958Z,975.37
2017-04-04T10:01:55.714Z,975.38
2017-04-04T10:03:04.432Z,975.33
2017-04-04T10:04:13.200Z,975.33
2017-04-04T10:05:22.275Z,975.34
2017-04-04T10:06:31.042Z,975.37
2017-04-04T10:07:39.813Z,975.24
2017-04-04T10:08:49.137Z,975.33
2017-04-04T10:09:57.905Z,975.42
2017-04-04T10:11:06.978Z,975.37
2017-04-04T10:12:15.751Z,975.37
2017-04-04T10:13:25.133Z,975.4
2017-04-04T10:14:34.509Z,975.5
2017-04-04T10:15:43.586Z,975.61
2017-04-04T10:16:52.662Z,975.68
2017-04-04T10:18:01.437Z,975.71
2017-04-04T10:19:10.497Z,975.77
2017-04-04T10:20:19.208Z,975.74
2017-04-04T10:21:28.590Z,975.59
2017-04-04T10:22:37.605Z,975.5
2017-04-04T10:23:46.383Z,975.42
2017-04-04T10:24:55.353Z,975.45
2017-04-04T10:26:04.372Z,975.38
2017-04-04T10:27:13.437Z,975.39
2017-04-04T10:28:22.204Z,975.51
2017-04-04T10:29:31.276Z,975.64
2017-04-04T10:30:40.051Z,975.67
2017-04-04T10:31:48.818Z,975.58
2017-04-04T10:32:57.583Z,975.55
2017-04-04T10:34:06.339Z,975.41
2017-04-04T10:35:15.398Z,975.34
2017-04-04T10:36:24.127Z,975.36
2017-04-04T10:37:32.885Z,975.28
2017-04-04T10:38:41.957Z,975.34
2017-04-04T10:39:50.731Z,975.29
2017-04-04T10:40:59.505Z,975.3
2017-04-04T10:42:08.571Z,975.36
2017-04-04T10:43:17.320Z,975.35
2017-04-04T10:44:26.095Z,975.33
2017-04-04T10:45:35.056Z,975.29
2017-04-04T10:46:43.837Z,975.25
2017-04-04T10:47:52.598Z,975.28
2017-04-04T10:49:01.369Z,975.31
2017-04-04T10:50:10.169Z,975.27
2017-04-04T10:51:18.935Z,975.28
2017-04-04T10:52:28.005Z,975.32
2017-04-04T10:53:36.772Z,975.31
2017-04-04T10:54:45.538Z,975.31
2017-04-04T10:55:54.314Z,975.28
2017-04-04T10:57:03.093Z,975.27
2017-04-04T10:58:11.873Z,975.28
2017-04-04T10:59:20.650Z,975.3
2017-04-04T11:00:30.020Z,975.32
2017-04-04T11:01:38.733Z,975.3
2017-04-04T11:02:47.800Z,975.32
2017-04-04T11:03:56.514Z,975.33
2017-04-04T11:05:05.840Z,975.29
2017-04-04T11:06:14.587Z,975.28
2017-04-04T11:07:23.956Z,975.34
2017-04-04T11:08:32.674Z,975.33
2017-04-04T11:09:41.430Z,975.24
2017-04-04T11:10:50.146Z,975.25
2017-04-04T11:11:58.913Z,975.22
2017-04-04T11:13:08.283Z,975.15
2017-04-04T11:14:17.037Z,975.13
2017-04-04T11:15:26.064Z,975.17
2017-04-04T11:16:35.137Z,975.09
2017-04-04T11:17:43.912Z,975.06
2017-04-04T11:18:52.682Z,975.06
2017-04-04T11:20:01.446Z,975.05
2017-04-04T11:21:10.467Z,975.06
2017-04-04T11:22:19.551Z,975.13
2017-04-04T11:23:28.326Z,975.15
2017-04-04T11:24:37.101Z,975
2017-04-04T11:25:45.854Z,974.96
2017-04-04T11:26:54.572Z,975.03
2017-04-04T11:28:03.644Z,974.98
2017-04-04T11:29:12.410Z,975.13
2017-04-04T11:30:21.533Z,975.13
2017-04-04T11:31:30.558Z,975.03
2017-04-04T11:32:39.320Z,975
2017-04-04T11:33:48.585Z,975.09
2017-04-04T11:34:57.612Z,975.18
2017-04-04T11:36:07.004Z,975.17
2017-04-04T11:37:15.769Z,975.12
2017-04-04T11:38:24.534Z,975.22
2017-04-04T11:39:33.597Z,975.2
2017-04-04T11:40:43.106Z,975.2
2017-04-04T11:41:51.839Z,975.19
2017-04-04T11:43:00.608Z,975.15
2017-04-04T11:44:09.980Z,975.13
2017-04-04T11:45:18.749Z,975.13
2017-04-04T11:46:27.522Z,975.13
2017-04-04T11:47:36.608Z,975.11
2017-04-04T11:48:45.378Z,975.14
2017-04-04T11:49:54.462Z,975.17
2017-04-04T11:51:03.444Z,975.16
2017-04-04T11:52:12.221Z,975.09
2017-04-04T11:53:21.038Z,975.1
2017-04-04T11:54:29.807Z,975.14
2017-04-04T11:55:38.580Z,975.12
2017-04-04T11:56:47.657Z,975.1
2017-04-04T11:57:56.430Z,975.1
2017-04-04T11:59:05.813Z,975.08
2017-04-04T12:00:14.586Z,975.09
2017-04-04T12:01:23.666Z,975.08
2017-04-04T12:02:32.429Z,975.08
2017-04-04T12:03:41.189Z,975.07
2017-04-04T12:04:49.958Z,975.04
2017-04-04T12:05:58.710Z,974.95
2017-04-04T12:07:07.731Z,974.95
2017-04-04T12:08:16.503Z,974.88
2017-04-04T12:09:25.278Z,974.84
2017-04-04T12:10:34.042Z,974.87
2017-04-04T12:11:42.767Z,974.82
2017-04-04T12:12:51.550Z,974.81
2017-04-04T12:14:00.323Z,974.73
2017-04-04T12:15:09.701Z,974.77
2017-04-04T12:16:18.475Z,974.7
2017-04-04T12:17:27.251Z,974.63
2017-04-04T12:18:36.004Z,974.62
2017-04-04T12:19:45.036Z,974.63
2017-04-04T12:20:53.817Z,974.7
2017-04-04T12:22:02.573Z,974.66
2017-04-04T12:23:11.278Z,974.63
2017-04-04T12:24:19.990Z,974.63
2017-04-04T12:25:28.758Z,974.7
2017-04-04T12:26:37.532Z,974.66
2017-04-04T12:27:46.595Z,974.68
2017-04-04T12:28:55.371Z,974.66
2017-04-04T12:30:04.137Z,974.61
2017-04-04T12:31:13.515Z,974.56
2017-04-04T12:32:22.288Z,974.6
2017-04-04T12:33:31.362Z,974.6
2017-04-04T12:34:40.129Z,974.57
2017-04-04T12:35:49.203Z,974.62
2017-04-04T12:36:58.276Z,974.59
2017-04-04T12:38:07.645Z,974.57
2017-04-04T12:39:16.361Z,974.56
2017-04-04T12:40:26.080Z,974.61
2017-04-04T12:41:34.849Z,974.65
2017-04-04T12:42:43.609Z,974.54
2017-04-04T12:43:52.373Z,974.62
2017-04-04T12:45:01.443Z,974.58
2017-04-04T12:46:10.513Z,974.55
2017-04-04T12:47:19.279Z,974.61
2017-04-04T12:48:28.050Z,974.55
2017-04-04T12:49:37.436Z,974.53
2017-04-04T12:50:46.819Z,974.59
2017-04-04T12:51:56.098Z,974.61
2017-04-04T12:53:05.467Z,974.61
2017-04-04T12:54:14.793Z,974.57
2017-04-04T12:55:24.166Z,974.62
2017-04-04T12:56:33.490Z,974.57
2017-04-04T12:57:43.172Z,974.58
2017-04-04T12:58:52.552Z,974.59
2017-04-04T13:00:01.943Z,974.6
2017-04-04T13:01:11.012Z,974.63
2017-04-04T13:02:19.771Z,974.63
2017-04-04T13:03:28.547Z,974.61
2017-04-04T13:04:37.612Z,974.59
2017-04-04T13:05:47.291Z,974.57
2017-04-04T13:06:56.356Z,974.63
2017-04-04T13:08:05.075Z,974.54
2017-04-04T13:09:13.836Z,974.51
2017-04-04T13:10:22.542Z,974.54
2017-04-04T13:11:31.298Z,974.5
2017-04-04T13:12:40.008Z,974.5
2017-04-04T13:13:49.092Z,974.48
2017-04-04T13:14:57.851Z,974.46
2017-04-04T13:16:06.621Z,974.43
2017-04-04T13:17:15.374Z,974.45
2017-04-04T13:18:24.388Z,974.49
2017-04-04T13:19:33.147Z,974.49
2017-04-04T13:20:41.921Z,974.43
2017-04-04T13:21:50.985Z,974.45
2017-04-04T13:23:00.071Z,974.42
2017-04-04T13:24:09.141Z,974.45
2017-04-04T13:25:18.518Z,974.4
2017-04-04T13:26:27.585Z,974.44
2017-04-04T13:27:36.956Z,974.38
2017-04-04T13:28:46.109Z,974.36
2017-04-04T13:29:55.127Z,974.39
2017-04-04T13:31:04.204Z,974.39
2017-04-04T13:32:12.976Z,974.35
2017-04-04T13:33:21.741Z,974.37
2017-04-04T13:34:30.802Z,974.32
2017-04-04T13:35:39.811Z,974.33
2017-04-04T13:36:48.570Z,974.36
2017-04-04T13:37:57.899Z,974.31
2017-04-04T13:39:07.175Z,974.24
2017-04-04T13:40:15.938Z,974.27
2017-04-04T13:41:24.712Z,974.29
2017-04-04T13:42:33.474Z,974.26
2017-04-04T13:43:42.541Z,974.24
2017-04-04T13:44:51.305Z,974.28
2017-04-04T13:46:00.376Z,974.2
2017-04-04T13:47:09.144Z,974.2
2017-04-04T13:48:18.525Z,974.17
2017-04-04T13:49:27.901Z,974.16
2017-04-04T13:50:36.657Z,974.12
2017-04-04T13:51:45.727Z,974.11
2017-04-04T13:52:54.535Z,974.15
2017-04-04T13:54:03.301Z,974.13
2017-04-04T13:55:12.267Z,974.18
2017-04-04T13:56:21.030Z,974.17
2017-04-04T13:57:30.041Z,974.14
2017-04-04T13:58:38.809Z,974.16
2017-04-04T13:59:47.577Z,974.18
2017-04-04T14:00:56.628Z,974.13
2017-04-04T14:02:05.349Z,974.13
2017-04-04T14:03:14.261Z,974.1
2017-04-04T14:04:23.317Z,974.06
2017-04-04T14:05:32.335Z,974.01
2017-04-04T14:06:41.094Z,974.04
2017-04-04T14:07:49.861Z,974.09
2017-04-04T14:08:59.852Z,974.07
2017-04-04T14:10:08.939Z,974.07
2017-04-04T14:11:17.996Z,974.1
2017-04-04T14:12:26.762Z,974.08
2017-04-04T14:13:36.136Z,974.13
2017-04-04T14:14:44.908Z,974.12
2017-04-04T14:15:53.965Z,974.05
2017-04-04T14:17:02.675Z,974.04
2017-04-04T14:18:12.053Z,974.05
2017-04-04T14:19:20.810Z,974
2017-04-04T14:20:29.862Z,974.08
2017-04-04T14:21:38.579Z,974
2017-04-04T14:22:47.964Z,973.98